sensor_id;sensor_type;location;lat;lon;timestamp;temperature;humidity
66271;DHT22;53063;39.614;8.814;2022-07-06T00:00:45;25.40;82.30
66271;DHT22;53063;39.614;8.814;2022-07-06T00:03:11;25.40;82.40
66271;DHT22;53063;39.614;8.814;2022-07-06T00:05:37;25.40;82.70
66271;DHT22;53063;39.614;8.814;2022-07-06T00:08:03;25.30;82.70
66271;DHT22;53063;39.614;8.814;2022-07-06T00:10:30;25.40;82.90
66271;DHT22;53063;39.614;8.814;2022-07-06T00:12:56;25.40;83.00
66271;DHT22;53063;39.614;8.814;2022-07-06T00:15:22;25.50;83.20
66271;DHT22;53063;39.614;8.814;2022-07-06T00:17:48;25.50;83.30
66271;DHT22;53063;39.614;8.814;2022-07-06T00:20:14;25.60;83.50
66271;DHT22;53063;39.614;8.814;2022-07-06T00:22:40;25.50;83.50
66271;DHT22;53063;39.614;8.814;2022-07-06T00:25:07;25.60;83.60
66271;DHT22;53063;39.614;8.814;2022-07-06T00:27:33;25.60;83.70
66271;DHT22;53063;39.614;8.814;2022-07-06T00:30:00;25.60;83.60
66271;DHT22;53063;39.614;8.814;2022-07-06T00:32:26;25.70;83.50
66271;DHT22;53063;39.614;8.814;2022-07-06T00:34:53;25.70;83.70
66271;DHT22;53063;39.614;8.814;2022-07-06T00:37:19;25.60;83.90
66271;DHT22;53063;39.614;8.814;2022-07-06T00:39:45;25.60;84.00
66271;DHT22;53063;39.614;8.814;2022-07-06T00:42:11;25.60;83.90
66271;DHT22;53063;39.614;8.814;2022-07-06T00:44:37;25.60;83.90
66271;DHT22;53063;39.614;8.814;2022-07-06T00:47:03;25.50;84.00
66271;DHT22;53063;39.614;8.814;2022-07-06T00:49:31;25.50;83.90
66271;DHT22;53063;39.614;8.814;2022-07-06T00:52:16;25.60;83.70
66271;DHT22;53063;39.614;8.814;2022-07-06T00:54:43;25.50;83.90
66271;DHT22;53063;39.614;8.814;2022-07-06T00:57:09;25.60;83.70
66271;DHT22;53063;39.614;8.814;2022-07-06T00:59:36;25.50;83.60
66271;DHT22;53063;39.614;8.814;2022-07-06T01:02:02;25.60;83.40
66271;DHT22;53063;39.614;8.814;2022-07-06T01:04:28;25.50;83.30
66271;DHT22;53063;39.614;8.814;2022-07-06T01:06:56;25.40;83.50
66271;DHT22;53063;39.614;8.814;2022-07-06T01:09:22;25.50;83.60
66271;DHT22;53063;39.614;8.814;2022-07-06T01:11:49;25.50;83.60
66271;DHT22;53063;39.614;8.814;2022-07-06T01:14:15;25.50;83.40
66271;DHT22;53063;39.614;8.814;2022-07-06T01:16:41;25.50;83.10
66271;DHT22;53063;39.614;8.814;2022-07-06T01:19:07;25.50;82.90
66271;DHT22;53063;39.614;8.814;2022-07-06T01:21:33;25.50;83.00
66271;DHT22;53063;39.614;8.814;2022-07-06T01:23:59;25.50;83.20
66271;DHT22;53063;39.614;8.814;2022-07-06T01:26:25;25.40;83.10
66271;DHT22;53063;39.614;8.814;2022-07-06T01:28:52;25.40;83.20
66271;DHT22;53063;39.614;8.814;2022-07-06T01:31:24;25.30;83.10
66271;DHT22;53063;39.614;8.814;2022-07-06T01:33:52;25.30;83.30
66271;DHT22;53063;39.614;8.814;2022-07-06T01:36:19;25.30;83.40
66271;DHT22;53063;39.614;8.814;2022-07-06T01:38:50;25.30;83.30
66271;DHT22;53063;39.614;8.814;2022-07-06T01:41:17;25.30;83.50
66271;DHT22;53063;39.614;8.814;2022-07-06T01:43:43;25.30;83.40
66271;DHT22;53063;39.614;8.814;2022-07-06T01:46:10;25.20;83.40
66271;DHT22;53063;39.614;8.814;2022-07-06T01:48:36;25.30;83.60
66271;DHT22;53063;39.614;8.814;2022-07-06T01:51:03;25.30;83.60
66271;DHT22;53063;39.614;8.814;2022-07-06T01:53:30;25.30;83.40
66271;DHT22;53063;39.614;8.814;2022-07-06T01:55:56;25.30;83.40
66271;DHT22;53063;39.614;8.814;2022-07-06T01:58:22;25.30;83.50
66271;DHT22;53063;39.614;8.814;2022-07-06T02:00:48;25.20;83.80
66271;DHT22;53063;39.614;8.814;2022-07-06T02:03:14;25.20;83.90
66271;DHT22;53063;39.614;8.814;2022-07-06T02:05:40;25.20;84.00
66271;DHT22;53063;39.614;8.814;2022-07-06T02:08:06;25.20;84.10
66271;DHT22;53063;39.614;8.814;2022-07-06T02:10:33;25.10;84.10
66271;DHT22;53063;39.614;8.814;2022-07-06T02:12:59;25.10;84.40
66271;DHT22;53063;39.614;8.814;2022-07-06T02:15:25;25.00;84.50
66271;DHT22;53063;39.614;8.814;2022-07-06T02:17:51;25.00;84.50
66271;DHT22;53063;39.614;8.814;2022-07-06T02:20:17;25.00;84.60
66271;DHT22;53063;39.614;8.814;2022-07-06T02:22:43;25.00;84.60
66271;DHT22;53063;39.614;8.814;2022-07-06T02:25:09;25.00;84.60
66271;DHT22;53063;39.614;8.814;2022-07-06T02:27:37;25.00;84.80
66271;DHT22;53063;39.614;8.814;2022-07-06T02:30:06;25.00;84.60
66271;DHT22;53063;39.614;8.814;2022-07-06T02:32:33;25.00;84.70
66271;DHT22;53063;39.614;8.814;2022-07-06T02:35:00;25.00;84.70
66271;DHT22;53063;39.614;8.814;2022-07-06T02:37:26;25.00;84.80
66271;DHT22;53063;39.614;8.814;2022-07-06T02:39:51;25.00;84.80
66271;DHT22;53063;39.614;8.814;2022-07-06T02:42:18;25.10;84.80
66271;DHT22;53063;39.614;8.814;2022-07-06T02:44:44;25.10;84.90
66271;DHT22;53063;39.614;8.814;2022-07-06T02:47:10;25.10;85.10
66271;DHT22;53063;39.614;8.814;2022-07-06T02:49:37;25.10;85.20
66271;DHT22;53063;39.614;8.814;2022-07-06T02:52:03;25.10;85.50
66271;DHT22;53063;39.614;8.814;2022-07-06T02:54:31;25.10;85.60
66271;DHT22;53063;39.614;8.814;2022-07-06T02:56:57;25.10;85.20
66271;DHT22;53063;39.614;8.814;2022-07-06T02:59:23;25.10;85.20
66271;DHT22;53063;39.614;8.814;2022-07-06T03:01:50;25.10;85.20
66271;DHT22;53063;39.614;8.814;2022-07-06T03:04:16;25.00;85.40
66271;DHT22;53063;39.614;8.814;2022-07-06T03:06:44;25.00;85.40
66271;DHT22;53063;39.614;8.814;2022-07-06T03:09:10;24.90;85.20
66271;DHT22;53063;39.614;8.814;2022-07-06T03:11:37;24.90;85.20
66271;DHT22;53063;39.614;8.814;2022-07-06T03:14:04;24.80;85.30
66271;DHT22;53063;39.614;8.814;2022-07-06T03:16:32;24.80;85.20
66271;DHT22;53063;39.614;8.814;2022-07-06T03:18:59;24.80;85.40
66271;DHT22;53063;39.614;8.814;2022-07-06T03:21:25;24.80;85.40
66271;DHT22;53063;39.614;8.814;2022-07-06T03:23:51;24.70;85.40
66271;DHT22;53063;39.614;8.814;2022-07-06T03:26:17;24.70;85.50
66271;DHT22;53063;39.614;8.814;2022-07-06T03:28:44;24.70;85.50
66271;DHT22;53063;39.614;8.814;2022-07-06T03:31:10;24.70;85.60
66271;DHT22;53063;39.614;8.814;2022-07-06T03:33:37;24.70;85.60
66271;DHT22;53063;39.614;8.814;2022-07-06T03:36:04;24.60;85.70
66271;DHT22;53063;39.614;8.814;2022-07-06T03:38:31;24.60;85.80
66271;DHT22;53063;39.614;8.814;2022-07-06T03:40:57;24.60;85.90
66271;DHT22;53063;39.614;8.814;2022-07-06T03:43:23;24.50;86.00
66271;DHT22;53063;39.614;8.814;2022-07-06T03:45:49;24.60;86.00
66271;DHT22;53063;39.614;8.814;2022-07-06T03:48:15;24.50;86.00
66271;DHT22;53063;39.614;8.814;2022-07-06T03:50:42;24.50;86.10
66271;DHT22;53063;39.614;8.814;2022-07-06T03:53:10;24.40;86.50
66271;DHT22;53063;39.614;8.814;2022-07-06T03:55:36;24.40;86.50
66271;DHT22;53063;39.614;8.814;2022-07-06T03:58:06;24.40;86.70
66271;DHT22;53063;39.614;8.814;2022-07-06T04:00:33;24.40;86.60
66271;DHT22;53063;39.614;8.814;2022-07-06T04:03:03;24.40;86.60
66271;DHT22;53063;39.614;8.814;2022-07-06T04:05:34;24.40;86.50
66271;DHT22;53063;39.614;8.814;2022-07-06T04:08:00;24.40;86.70
66271;DHT22;53063;39.614;8.814;2022-07-06T04:10:34;24.40;86.70
66271;DHT22;53063;39.614;8.814;2022-07-06T04:13:01;24.40;86.80
66271;DHT22;53063;39.614;8.814;2022-07-06T04:15:28;24.40;86.90
66271;DHT22;53063;39.614;8.814;2022-07-06T04:17:54;24.30;87.20
66271;DHT22;53063;39.614;8.814;2022-07-06T04:20:25;24.30;87.00
66271;DHT22;53063;39.614;8.814;2022-07-06T04:22:53;24.30;86.90
66271;DHT22;53063;39.614;8.814;2022-07-06T04:25:21;24.40;86.20
66271;DHT22;53063;39.614;8.814;2022-07-06T04:27:47;24.40;85.30
66271;DHT22;53063;39.614;8.814;2022-07-06T04:30:13;24.50;84.30
66271;DHT22;53063;39.614;8.814;2022-07-06T04:32:41;24.40;83.70
66271;DHT22;53063;39.614;8.814;2022-07-06T04:35:09;24.40;83.40
66271;DHT22;53063;39.614;8.814;2022-07-06T04:37:35;24.30;82.90
66271;DHT22;53063;39.614;8.814;2022-07-06T04:40:01;24.40;82.40
66271;DHT22;53063;39.614;8.814;2022-07-06T04:42:28;24.40;82.70
66271;DHT22;53063;39.614;8.814;2022-07-06T04:44:55;24.60;82.10
66271;DHT22;53063;39.614;8.814;2022-07-06T04:47:21;24.60;81.50
66271;DHT22;53063;39.614;8.814;2022-07-06T04:49:47;24.50;81.20
66271;DHT22;53063;39.614;8.814;2022-07-06T04:52:14;24.50;81.10
66271;DHT22;53063;39.614;8.814;2022-07-06T04:54:40;24.50;80.40
66271;DHT22;53063;39.614;8.814;2022-07-06T04:57:07;24.50;79.90
66271;DHT22;53063;39.614;8.814;2022-07-06T04:59:33;24.60;78.30
66271;DHT22;53063;39.614;8.814;2022-07-06T05:02:00;24.70;76.50
66271;DHT22;53063;39.614;8.814;2022-07-06T05:04:27;24.80;76.10
66271;DHT22;53063;39.614;8.814;2022-07-06T05:06:55;24.70;76.80
66271;DHT22;53063;39.614;8.814;2022-07-06T05:09:21;24.50;77.70
66271;DHT22;53063;39.614;8.814;2022-07-06T05:11:48;24.80;76.60
66271;DHT22;53063;39.614;8.814;2022-07-06T05:14:14;25.10;75.80
66271;DHT22;53063;39.614;8.814;2022-07-06T05:16:40;25.10;74.20
66271;DHT22;53063;39.614;8.814;2022-07-06T05:19:07;25.10;73.60
66271;DHT22;53063;39.614;8.814;2022-07-06T05:21:33;25.20;73.20
66271;DHT22;53063;39.614;8.814;2022-07-06T05:24:00;25.20;72.50
66271;DHT22;53063;39.614;8.814;2022-07-06T05:26:27;25.20;75.40
66271;DHT22;53063;39.614;8.814;2022-07-06T05:28:54;25.20;76.40
66271;DHT22;53063;39.614;8.814;2022-07-06T05:31:22;25.40;76.10
66271;DHT22;53063;39.614;8.814;2022-07-06T05:33:48;25.40;75.30
66271;DHT22;53063;39.614;8.814;2022-07-06T05:36:14;25.50;75.20
66271;DHT22;53063;39.614;8.814;2022-07-06T05:38:40;25.60;75.60
66271;DHT22;53063;39.614;8.814;2022-07-06T05:41:07;25.70;74.90
66271;DHT22;53063;39.614;8.814;2022-07-06T05:43:36;25.60;73.80
66271;DHT22;53063;39.614;8.814;2022-07-06T05:46:02;25.70;73.60
66271;DHT22;53063;39.614;8.814;2022-07-06T05:48:30;25.90;73.00
66271;DHT22;53063;39.614;8.814;2022-07-06T05:51:15;25.90;73.50
66271;DHT22;53063;39.614;8.814;2022-07-06T05:53:43;26.10;73.10
66271;DHT22;53063;39.614;8.814;2022-07-06T05:56:09;26.40;72.30
66271;DHT22;53063;39.614;8.814;2022-07-06T05:58:37;26.60;71.70
66271;DHT22;53063;39.614;8.814;2022-07-06T06:01:03;26.90;67.60
66271;DHT22;53063;39.614;8.814;2022-07-06T06:03:31;27.60;63.80
66271;DHT22;53063;39.614;8.814;2022-07-06T06:05:57;28.30;64.30
66271;DHT22;53063;39.614;8.814;2022-07-06T06:08:24;28.40;62.00
66271;DHT22;53063;39.614;8.814;2022-07-06T06:10:52;27.90;61.10
66271;DHT22;53063;39.614;8.814;2022-07-06T06:13:21;27.60;60.20
66271;DHT22;53063;39.614;8.814;2022-07-06T06:15:47;27.80;61.20
66271;DHT22;53063;39.614;8.814;2022-07-06T06:18:14;27.80;59.20
66271;DHT22;53063;39.614;8.814;2022-07-06T06:20:43;27.80;60.50
66271;DHT22;53063;39.614;8.814;2022-07-06T06:23:09;27.90;59.70
66271;DHT22;53063;39.614;8.814;2022-07-06T06:25:37;27.90;56.30
66271;DHT22;53063;39.614;8.814;2022-07-06T06:28:04;28.20;57.80
66271;DHT22;53063;39.614;8.814;2022-07-06T06:30:31;28.20;57.50
66271;DHT22;53063;39.614;8.814;2022-07-06T06:33:09;28.20;56.30
66271;DHT22;53063;39.614;8.814;2022-07-06T06:35:36;28.40;56.70
66271;DHT22;53063;39.614;8.814;2022-07-06T06:38:03;28.60;55.60
66271;DHT22;53063;39.614;8.814;2022-07-06T06:40:29;28.80;52.60
66271;DHT22;53063;39.614;8.814;2022-07-06T06:42:55;28.90;53.80
66271;DHT22;53063;39.614;8.814;2022-07-06T06:45:22;29.00;53.30
66271;DHT22;53063;39.614;8.814;2022-07-06T06:47:48;29.00;53.70
66271;DHT22;53063;39.614;8.814;2022-07-06T06:50:14;28.80;51.00
66271;DHT22;53063;39.614;8.814;2022-07-06T06:52:40;28.80;54.00
66271;DHT22;53063;39.614;8.814;2022-07-06T06:55:06;29.20;51.60
66271;DHT22;53063;39.614;8.814;2022-07-06T06:57:33;29.60;51.50
66271;DHT22;53063;39.614;8.814;2022-07-06T06:59:58;29.90;52.70
66271;DHT22;53063;39.614;8.814;2022-07-06T07:02:24;29.60;54.50
66271;DHT22;53063;39.614;8.814;2022-07-06T07:04:50;29.70;54.40
66271;DHT22;53063;39.614;8.814;2022-07-06T07:07:16;29.70;52.50
66271;DHT22;53063;39.614;8.814;2022-07-06T07:09:42;29.90;53.40
66271;DHT22;53063;39.614;8.814;2022-07-06T07:12:08;30.10;53.50
66271;DHT22;53063;39.614;8.814;2022-07-06T07:43:45;31.30;50.70
66271;DHT22;53063;39.614;8.814;2022-07-06T07:46:11;31.60;48.70
66271;DHT22;53063;39.614;8.814;2022-07-06T07:48:37;31.70;48.90
66271;DHT22;53063;39.614;8.814;2022-07-06T07:51:03;31.90;48.60
66271;DHT22;53063;39.614;8.814;2022-07-06T07:53:29;32.10;45.50
66271;DHT22;53063;39.614;8.814;2022-07-06T07:55:55;32.40;45.70
66271;DHT22;53063;39.614;8.814;2022-07-06T07:58:21;32.50;45.50
66271;DHT22;53063;39.614;8.814;2022-07-06T08:00:47;32.70;45.60
66271;DHT22;53063;39.614;8.814;2022-07-06T08:03:13;32.90;44.70
66271;DHT22;53063;39.614;8.814;2022-07-06T08:05:39;32.70;43.20
66271;DHT22;53063;39.614;8.814;2022-07-06T08:08:05;32.90;43.40
66271;DHT22;53063;39.614;8.814;2022-07-06T08:10:31;32.90;41.50
66271;DHT22;53063;39.614;8.814;2022-07-06T08:12:57;32.90;43.70
66271;DHT22;53063;39.614;8.814;2022-07-06T08:15:23;33.10;43.80
66271;DHT22;53063;39.614;8.814;2022-07-06T08:17:49;33.20;43.40
66271;DHT22;53063;39.614;8.814;2022-07-06T08:20:15;33.20;43.60
66271;DHT22;53063;39.614;8.814;2022-07-06T08:22:44;33.30;43.70
66271;DHT22;53063;39.614;8.814;2022-07-06T08:25:10;33.20;45.30
66271;DHT22;53063;39.614;8.814;2022-07-06T08:27:36;33.00;44.70
66271;DHT22;53063;39.614;8.814;2022-07-06T08:30:05;32.90;42.50
66271;DHT22;53063;39.614;8.814;2022-07-06T08:32:32;32.90;44.10
66271;DHT22;53063;39.614;8.814;2022-07-06T08:34:58;32.70;43.30
66271;DHT22;53063;39.614;8.814;2022-07-06T08:37:24;32.90;42.80
66271;DHT22;53063;39.614;8.814;2022-07-06T08:39:49;32.80;43.50
66271;DHT22;53063;39.614;8.814;2022-07-06T08:42:16;32.90;42.90
66271;DHT22;53063;39.614;8.814;2022-07-06T08:44:43;33.20;41.30
66271;DHT22;53063;39.614;8.814;2022-07-06T08:47:10;33.20;40.10
66271;DHT22;53063;39.614;8.814;2022-07-06T08:49:42;33.10;40.00
66271;DHT22;53063;39.614;8.814;2022-07-06T08:52:09;33.00;40.60
66271;DHT22;53063;39.614;8.814;2022-07-06T08:54:35;33.00;40.40
66271;DHT22;53063;39.614;8.814;2022-07-06T08:57:03;33.10;40.80
66271;DHT22;53063;39.614;8.814;2022-07-06T08:59:30;33.20;40.90
66271;DHT22;53063;39.614;8.814;2022-07-06T09:01:56;33.30;41.30
66271;DHT22;53063;39.614;8.814;2022-07-06T09:04:23;33.30;41.10
66271;DHT22;53063;39.614;8.814;2022-07-06T09:06:50;33.40;42.00
66271;DHT22;53063;39.614;8.814;2022-07-06T09:09:20;33.30;41.70
66271;DHT22;53063;39.614;8.814;2022-07-06T09:11:47;33.40;41.90
66271;DHT22;53063;39.614;8.814;2022-07-06T09:14:14;33.60;41.60
66271;DHT22;53063;39.614;8.814;2022-07-06T09:16:39;33.70;41.80
66271;DHT22;53063;39.614;8.814;2022-07-06T09:19:07;33.50;43.00
66271;DHT22;53063;39.614;8.814;2022-07-06T09:21:33;33.70;43.10
66271;DHT22;53063;39.614;8.814;2022-07-06T09:24:06;34.00;42.70
66271;DHT22;53063;39.614;8.814;2022-07-06T09:26:32;33.80;43.50
66271;DHT22;53063;39.614;8.814;2022-07-06T09:28:59;33.90;43.30
66271;DHT22;53063;39.614;8.814;2022-07-06T09:31:25;33.80;43.30
66271;DHT22;53063;39.614;8.814;2022-07-06T09:34:06;33.90;42.90
66271;DHT22;53063;39.614;8.814;2022-07-06T09:41:41;34.40;39.20
66271;DHT22;53063;39.614;8.814;2022-07-06T09:44:09;34.60;38.70
66271;DHT22;53063;39.614;8.814;2022-07-06T09:46:40;34.80;37.40
66271;DHT22;53063;39.614;8.814;2022-07-06T09:49:07;34.80;37.30
66271;DHT22;53063;39.614;8.814;2022-07-06T09:51:38;35.00;36.60
66271;DHT22;53063;39.614;8.814;2022-07-06T09:54:08;35.20;37.20
66271;DHT22;53063;39.614;8.814;2022-07-06T09:56:39;35.50;36.60
66271;DHT22;53063;39.614;8.814;2022-07-06T09:59:12;35.40;37.50
66271;DHT22;53063;39.614;8.814;2022-07-06T10:01:39;35.30;37.40
66271;DHT22;53063;39.614;8.814;2022-07-06T10:04:06;35.50;37.40
66271;DHT22;53063;39.614;8.814;2022-07-06T10:06:33;35.70;37.50
66271;DHT22;53063;39.614;8.814;2022-07-06T10:08:59;35.90;36.20
66271;DHT22;53063;39.614;8.814;2022-07-06T10:11:27;36.00;36.00
66271;DHT22;53063;39.614;8.814;2022-07-06T10:13:56;35.90;37.20
66271;DHT22;53063;39.614;8.814;2022-07-06T10:16:25;35.90;36.40
66271;DHT22;53063;39.614;8.814;2022-07-06T10:18:52;35.80;36.90
66271;DHT22;53063;39.614;8.814;2022-07-06T10:21:24;36.00;36.40
66271;DHT22;53063;39.614;8.814;2022-07-06T10:23:51;36.20;36.20
66271;DHT22;53063;39.614;8.814;2022-07-06T10:26:18;36.10;36.20
66271;DHT22;53063;39.614;8.814;2022-07-06T10:28:44;36.20;36.90
66271;DHT22;53063;39.614;8.814;2022-07-06T10:31:14;36.30;37.20
66271;DHT22;53063;39.614;8.814;2022-07-06T10:33:42;36.10;37.10
66271;DHT22;53063;39.614;8.814;2022-07-06T10:36:09;36.30;36.40
66271;DHT22;53063;39.614;8.814;2022-07-06T10:38:35;36.60;36.60
66271;DHT22;53063;39.614;8.814;2022-07-06T10:41:07;36.50;36.00
66271;DHT22;53063;39.614;8.814;2022-07-06T10:43:41;36.80;35.80
66271;DHT22;53063;39.614;8.814;2022-07-06T10:46:13;37.00;34.70
66271;DHT22;53063;39.614;8.814;2022-07-06T10:48:40;36.90;35.20
66271;DHT22;53063;39.614;8.814;2022-07-06T10:51:06;37.10;34.40
66271;DHT22;53063;39.614;8.814;2022-07-06T10:53:37;37.10;33.80
66271;DHT22;53063;39.614;8.814;2022-07-06T10:56:08;37.20;34.70
66271;DHT22;53063;39.614;8.814;2022-07-06T10:58:39;37.10;35.20
66271;DHT22;53063;39.614;8.814;2022-07-06T11:01:09;37.10;35.00
66271;DHT22;53063;39.614;8.814;2022-07-06T11:03:40;37.10;34.90
66271;DHT22;53063;39.614;8.814;2022-07-06T11:06:17;37.30;34.40
66271;DHT22;53063;39.614;8.814;2022-07-06T11:08:45;37.20;34.40
66271;DHT22;53063;39.614;8.814;2022-07-06T11:11:12;37.50;34.50
66271;DHT22;53063;39.614;8.814;2022-07-06T11:13:56;37.50;33.80
66271;DHT22;53063;39.614;8.814;2022-07-06T11:16:25;37.60;34.30
66271;DHT22;53063;39.614;8.814;2022-07-06T11:19:13;37.50;34.80
66271;DHT22;53063;39.614;8.814;2022-07-06T11:24:27;37.60;34.90
66271;DHT22;53063;39.614;8.814;2022-07-06T11:26:55;37.70;34.80
66271;DHT22;53063;39.614;8.814;2022-07-06T11:29:22;37.30;34.70
66271;DHT22;53063;39.614;8.814;2022-07-06T11:31:50;37.40;34.30
66271;DHT22;53063;39.614;8.814;2022-07-06T11:34:20;37.40;33.70
66271;DHT22;53063;39.614;8.814;2022-07-06T11:36:46;37.40;34.30
66271;DHT22;53063;39.614;8.814;2022-07-06T11:39:14;37.40;34.10
66271;DHT22;53063;39.614;8.814;2022-07-06T11:41:41;37.40;33.20
66271;DHT22;53063;39.614;8.814;2022-07-06T11:44:07;37.90;32.60
66271;DHT22;53063;39.614;8.814;2022-07-06T11:46:34;37.90;32.20
66271;DHT22;53063;39.614;8.814;2022-07-06T11:49:03;38.00;32.20
66271;DHT22;53063;39.614;8.814;2022-07-06T11:51:31;38.00;31.30
66271;DHT22;53063;39.614;8.814;2022-07-06T11:53:59;37.90;32.30
66271;DHT22;53063;39.614;8.814;2022-07-06T11:56:26;38.00;32.20
66271;DHT22;53063;39.614;8.814;2022-07-06T11:58:55;38.30;31.60
66271;DHT22;53063;39.614;8.814;2022-07-06T12:01:22;38.20;32.00
66271;DHT22;53063;39.614;8.814;2022-07-06T12:03:52;38.40;31.20
66271;DHT22;53063;39.614;8.814;2022-07-06T12:06:23;38.30;30.30
66271;DHT22;53063;39.614;8.814;2022-07-06T12:08:56;38.40;30.90
66271;DHT22;53063;39.614;8.814;2022-07-06T12:13:56;38.70;30.10
66271;DHT22;53063;39.614;8.814;2022-07-06T12:16:32;38.70;29.60
66271;DHT22;53063;39.614;8.814;2022-07-06T12:19:03;38.70;29.80
66271;DHT22;53063;39.614;8.814;2022-07-06T12:21:29;38.80;30.40
66271;DHT22;53063;39.614;8.814;2022-07-06T12:23:56;38.50;31.20
66271;DHT22;53063;39.614;8.814;2022-07-06T12:26:23;38.40;31.70
66271;DHT22;53063;39.614;8.814;2022-07-06T12:29:11;38.50;31.40
66271;DHT22;53063;39.614;8.814;2022-07-06T12:31:51;38.30;31.50
66271;DHT22;53063;39.614;8.814;2022-07-06T12:34:25;38.20;31.20
66271;DHT22;53063;39.614;8.814;2022-07-06T12:36:57;38.30;31.90
66271;DHT22;53063;39.614;8.814;2022-07-06T12:39:25;38.70;31.40
66271;DHT22;53063;39.614;8.814;2022-07-06T12:41:54;38.60;31.20
66271;DHT22;53063;39.614;8.814;2022-07-06T12:44:25;38.10;31.70
66271;DHT22;53063;39.614;8.814;2022-07-06T12:47:05;38.10;31.70
66271;DHT22;53063;39.614;8.814;2022-07-06T12:49:32;38.50;31.10
66271;DHT22;53063;39.614;8.814;2022-07-06T12:52:07;38.70;30.90
66271;DHT22;53063;39.614;8.814;2022-07-06T12:54:50;38.70;30.80
66271;DHT22;53063;39.614;8.814;2022-07-06T12:57:21;38.90;30.20
66271;DHT22;53063;39.614;8.814;2022-07-06T13:02:19;38.90;30.50
66271;DHT22;53063;39.614;8.814;2022-07-06T13:05:01;38.40;30.30
66271;DHT22;53063;39.614;8.814;2022-07-06T13:07:29;38.50;30.20
66271;DHT22;53063;39.614;8.814;2022-07-06T13:09:58;38.60;29.80
66271;DHT22;53063;39.614;8.814;2022-07-06T13:12:25;38.60;30.00
66271;DHT22;53063;39.614;8.814;2022-07-06T13:14:51;38.20;30.40
66271;DHT22;53063;39.614;8.814;2022-07-06T13:17:17;38.50;30.20
66271;DHT22;53063;39.614;8.814;2022-07-06T13:19:43;38.80;29.90
66271;DHT22;53063;39.614;8.814;2022-07-06T13:22:10;38.70;29.80
66271;DHT22;53063;39.614;8.814;2022-07-06T13:24:36;38.60;29.70
66271;DHT22;53063;39.614;8.814;2022-07-06T13:27:03;38.60;29.80
66271;DHT22;53063;39.614;8.814;2022-07-06T13:29:29;38.50;30.20
66271;DHT22;53063;39.614;8.814;2022-07-06T13:31:55;38.60;30.00
66271;DHT22;53063;39.614;8.814;2022-07-06T13:34:21;38.30;30.70
66271;DHT22;53063;39.614;8.814;2022-07-06T13:36:47;38.20;30.80
66271;DHT22;53063;39.614;8.814;2022-07-06T13:39:13;38.40;30.50
66271;DHT22;53063;39.614;8.814;2022-07-06T13:41:39;38.40;30.30
66271;DHT22;53063;39.614;8.814;2022-07-06T13:44:05;38.40;30.40
66271;DHT22;53063;39.614;8.814;2022-07-06T13:46:33;38.30;30.60
66271;DHT22;53063;39.614;8.814;2022-07-06T13:48:59;38.20;31.40
66271;DHT22;53063;39.614;8.814;2022-07-06T13:51:26;38.20;31.60
66271;DHT22;53063;39.614;8.814;2022-07-06T13:53:54;38.30;31.50
66271;DHT22;53063;39.614;8.814;2022-07-06T13:56:20;38.10;31.70
66271;DHT22;53063;39.614;8.814;2022-07-06T13:58:46;38.20;31.70
66271;DHT22;53063;39.614;8.814;2022-07-06T14:01:15;38.30;32.00
66271;DHT22;53063;39.614;8.814;2022-07-06T14:03:42;38.30;31.60
66271;DHT22;53063;39.614;8.814;2022-07-06T14:06:08;38.30;31.40
66271;DHT22;53063;39.614;8.814;2022-07-06T14:08:35;38.10;32.00
66271;DHT22;53063;39.614;8.814;2022-07-06T14:11:02;38.00;31.70
66271;DHT22;53063;39.614;8.814;2022-07-06T14:13:28;38.10;32.00
66271;DHT22;53063;39.614;8.814;2022-07-06T14:15:55;38.10;32.30
66271;DHT22;53063;39.614;8.814;2022-07-06T14:18:21;38.10;32.60
66271;DHT22;53063;39.614;8.814;2022-07-06T14:20:48;38.20;32.00
66271;DHT22;53063;39.614;8.814;2022-07-06T14:23:15;38.00;31.50
66271;DHT22;53063;39.614;8.814;2022-07-06T14:25:43;37.80;31.50
66271;DHT22;53063;39.614;8.814;2022-07-06T14:28:09;37.90;31.90
66271;DHT22;53063;39.614;8.814;2022-07-06T14:30:36;37.80;31.20
66271;DHT22;53063;39.614;8.814;2022-07-06T14:33:07;37.80;31.80
66271;DHT22;53063;39.614;8.814;2022-07-06T14:35:38;37.70;32.00
66271;DHT22;53063;39.614;8.814;2022-07-06T14:38:07;37.60;32.10
66271;DHT22;53063;39.614;8.814;2022-07-06T14:40:39;37.10;32.70
66271;DHT22;53063;39.614;8.814;2022-07-06T14:43:06;37.00;32.40
66271;DHT22;53063;39.614;8.814;2022-07-06T14:45:32;36.70;32.80
66271;DHT22;53063;39.614;8.814;2022-07-06T14:48:00;36.40;33.40
66271;DHT22;53063;39.614;8.814;2022-07-06T14:50:28;36.20;33.20
66271;DHT22;53063;39.614;8.814;2022-07-06T14:52:54;35.70;33.70
66271;DHT22;53063;39.614;8.814;2022-07-06T14:55:21;35.50;34.80
66271;DHT22;53063;39.614;8.814;2022-07-06T14:57:48;35.30;36.20
66271;DHT22;53063;39.614;8.814;2022-07-06T15:00:14;34.90;37.30
66271;DHT22;53063;39.614;8.814;2022-07-06T15:02:42;34.80;37.50
66271;DHT22;53063;39.614;8.814;2022-07-06T15:05:09;34.70;38.40
66271;DHT22;53063;39.614;8.814;2022-07-06T15:07:35;34.60;38.80
66271;DHT22;53063;39.614;8.814;2022-07-06T15:10:01;34.70;39.00
66271;DHT22;53063;39.614;8.814;2022-07-06T15:12:27;34.60;38.70
66271;DHT22;53063;39.614;8.814;2022-07-06T15:14:53;34.30;38.70
66271;DHT22;53063;39.614;8.814;2022-07-06T15:17:19;34.40;38.70
66271;DHT22;53063;39.614;8.814;2022-07-06T15:19:45;34.50;39.10
66271;DHT22;53063;39.614;8.814;2022-07-06T15:22:11;34.40;37.40
66271;DHT22;53063;39.614;8.814;2022-07-06T15:24:37;34.20;37.60
66271;DHT22;53063;39.614;8.814;2022-07-06T15:27:04;34.20;37.80
66271;DHT22;53063;39.614;8.814;2022-07-06T15:29:31;34.10;38.00
66271;DHT22;53063;39.614;8.814;2022-07-06T15:31:57;33.80;38.50
66271;DHT22;53063;39.614;8.814;2022-07-06T15:34:23;33.90;39.20
66271;DHT22;53063;39.614;8.814;2022-07-06T15:36:50;33.90;38.60
66271;DHT22;53063;39.614;8.814;2022-07-06T15:39:16;33.70;39.00
66271;DHT22;53063;39.614;8.814;2022-07-06T15:41:42;33.30;40.10
66271;DHT22;53063;39.614;8.814;2022-07-06T15:44:08;32.90;41.00
66271;DHT22;53063;39.614;8.814;2022-07-06T15:46:35;32.90;41.80
66271;DHT22;53063;39.614;8.814;2022-07-06T15:49:01;32.90;42.00
66271;DHT22;53063;39.614;8.814;2022-07-06T15:51:28;32.90;42.40
66271;DHT22;53063;39.614;8.814;2022-07-06T15:53:54;32.70;40.60
66271;DHT22;53063;39.614;8.814;2022-07-06T15:56:20;32.40;41.70
66271;DHT22;53063;39.614;8.814;2022-07-06T15:58:46;32.10;42.40
66271;DHT22;53063;39.614;8.814;2022-07-06T16:01:12;32.20;42.60
66271;DHT22;53063;39.614;8.814;2022-07-06T16:03:38;32.10;42.90
66271;DHT22;53063;39.614;8.814;2022-07-06T16:06:05;32.10;42.90
66271;DHT22;53063;39.614;8.814;2022-07-06T16:08:31;31.80;43.20
66271;DHT22;53063;39.614;8.814;2022-07-06T16:10:57;31.70;43.90
66271;DHT22;53063;39.614;8.814;2022-07-06T16:13:23;31.60;43.30